| time (UTC) | temp C | wind direction | speed KPH | gust KPH | rain 1hr cm | rain 24hr cm | rain mn cm | humidity % | barometer mb |
| 20260504160157 | 24 | 330 | 8.0 | 19.3 | 0.00 | 0.00 | 0.00 | 31 | 1003.6 |
| 20260504150225 | 20 | 284 | 4.8 | 14.5 | 0.00 | 0.00 | 0.00 | 41 | 1003.8 |
| 20260504141231 | 17 | 6 | 6.4 | 19.3 | 0.00 | 0.00 | 0.00 | 46 | 1004.3 |
| 20260504100157 | 9 | 13 | 4.8 | 4.8 | 0.00 | 0.00 | 0.00 | 69 | 1003.4 |
| 20260504081154 | 13 | 13 | 6.4 | 9.7 | 0.00 | 0.00 | 0.00 | 49 | 1003.6 |
| 20260504080204 | 13 | 18 | 6.4 | 16.1 | 0.00 | 0.00 | 0.00 | 49 | 1003.7 |
| 20260504070158 | 13 | 166 | 11.3 | 19.3 | 0.00 | 0.00 | 0.00 | 48 | 1004.7 |
| 20260504060210 | 13 | 159 | 6.4 | 11.3 | 0.00 | 0.00 | 0.00 | 50 | 1006.0 |
| 20260504045208 | 13 | 144 | 4.8 | 9.7 | 0.00 | 0.00 | 0.00 | 52 | 1006.8 |
| 20260504044200 | 13 | 154 | 4.8 | 14.5 | 0.00 | 0.00 | 0.00 | 52 | 1006.9 |
| 20260504043157 | 13 | 142 | 3.2 | 11.3 | 0.00 | 0.00 | 0.00 | 52 | 1006.9 |
| 20260504042216 | 13 | 147 | 6.4 | 14.5 | 0.00 | 0.00 | 0.00 | 51 | 1007.1 |
| 20260504041234 | 13 | 145 | 4.8 | 9.7 | 0.00 | 0.00 | 0.00 | 52 | 1007.1 |
| 20260504040156 | 13 | 131 | 4.8 | 9.7 | 0.00 | 0.00 | 0.00 | 52 | 1007.0 |
| 20260504035202 | 13 | 146 | 4.8 | 9.7 | 0.00 | 0.00 | 0.00 | 51 | 1007.0 |
| 20260504034205 | 14 | 133 | 4.8 | 8.0 | 0.00 | 0.00 | 0.00 | 51 | 1007.0 |
| 20260504032208 | 15 | 140 | 6.4 | 12.9 | 0.00 | 0.00 | 0.00 | 48 | 1007.0 |
| 20260504030235 | 15 | 125 | 3.2 | 8.0 | 0.00 | 0.00 | 0.00 | 49 | 1007.2 |
| 20260504024208 | 16 | 6 | 0.0 | 4.8 | 0.00 | 0.00 | 0.00 | 45 | 1007.3 |
| 20260504023209 | 16 | 6 | 0.0 | 4.8 | 0.00 | 0.00 | 0.00 | 44 | 1007.4 |
| 20260504022231 | 16 | 6 | 1.6 | 8.0 | 0.00 | 0.00 | 0.00 | 43 | 1007.4 |
| 20260504020236 | 17 | 6 | 3.2 | 4.8 | 0.00 | 0.00 | 0.00 | 41 | 1007.6 |
| 20260504015158 | 18 | 6 | 0.0 | 3.2 | 0.00 | 0.00 | 0.00 | 40 | 1007.4 |
| 20260504014225 | 18 | 58 | 1.6 | 3.2 | 0.00 | 0.00 | 0.00 | 39 | 1007.3 |
| 20260504013202 | 18 | 86 | 1.6 | 8.0 | 0.00 | 0.00 | 0.00 | 40 | 1007.4 |
| 20260504012209 | 18 | 6 | 3.2 | 8.0 | 0.00 | 0.00 | 0.00 | 40 | 1007.4 |
| 20260504011223 | 19 | 6 | 3.2 | 4.8 | 0.00 | 0.00 | 0.00 | 40 | 1007.5 |
| 20260504010239 | 19 | 6 | 1.6 | 4.8 | 0.00 | 0.00 | 0.00 | 38 | 1007.4 |
| 20260504005236 | 20 | 6 | 1.6 | 3.2 | 0.00 | 0.00 | 0.00 | 38 | 1007.6 |
| 20260504004206 | 20 | 6 | 3.2 | 9.7 | 0.00 | 0.00 | 0.00 | 38 | 1007.8 |
| 20260504003220 | 20 | 6 | 3.2 | 8.0 | 0.00 | 0.00 | 0.00 | 37 | 1007.9 |
| 20260504002206 | 20 | 6 | 3.2 | 11.3 | 0.00 | 0.00 | 0.00 | 36 | 1008.1 |
| 20260504001200 | 21 | 6 | 3.2 | 8.0 | 0.00 | 0.00 | 0.00 | 34 | 1008.2 |
| 20260504000204 | 21 | 6 | 3.2 | 11.3 | 0.00 | 0.00 | 0.00 | 34 | 1008.5 |
| 20260503234208 | 21 | 6 | 6.4 | 14.5 | 0.00 | 0.00 | 0.00 | 35 | 1008.6 |
| 20260503233213 | 21 | 6 | 1.6 | 8.0 | 0.00 | 0.00 | 0.00 | 34 | 1008.7 |
| 20260503232235 | 21 | 6 | 3.2 | 8.0 | 0.00 | 0.00 | 0.00 | 37 | 1008.6 |
| 20260503231205 | 21 | 6 | 4.8 | 8.0 | 0.00 | 0.00 | 0.00 | 32 | 1008.7 |
| 20260503230203 | 21 | 6 | 6.4 | 14.5 | 0.00 | 0.00 | 0.00 | 33 | 1008.6 |
| 20260503225203 | 21 | 144 | 1.6 | 4.8 | 0.00 | 0.00 | 0.00 | 37 | 1008.7 |
| 20260503224234 | 21 | 19 | 0.0 | 4.8 | 0.00 | 0.00 | 0.00 | 33 | 1008.9 |
| 20260503223244 | 22 | 84 | 1.6 | 9.7 | 0.00 | 0.00 | 0.00 | 29 | 1008.9 |
| 20260503222234 | 22 | 34 | 1.6 | 9.7 | 0.00 | 0.00 | 0.00 | 31 | 1008.9 |
| 20260503221228 | 22 | 58 | 4.8 | 16.1 | 0.00 | 0.00 | 0.00 | 32 | 1009.0 |
| 20260503220204 | 22 | 113 | 4.8 | 11.3 | 0.00 | 0.00 | 0.00 | 30 | 1009.1 |
| 20260503213224 | 23 | 157 | 1.6 | 14.5 | 0.00 | 0.00 | 0.00 | 29 | 1009.7 |
| 20260503212237 | 23 | 91 | 1.6 | 17.7 | 0.00 | 0.00 | 0.00 | 33 | 1009.5 |
| 20260503211234 | 22 | 38 | 3.2 | 11.3 | 0.00 | 0.00 | 0.00 | 31 | 1009.6 |
| 20260503210231 | 22 | 161 | 8.0 | 19.3 | 0.00 | 0.00 | 0.00 | 31 | 1009.8 |
| 20260503204227 | 23 | 77 | 6.4 | 17.7 | 0.00 | 0.00 | 0.00 | 34 | 1010.1 |
| 20260503203208 | 22 | 76 | 3.2 | 19.3 | 0.00 | 0.00 | 0.00 | 34 | 1010.2 |
| 20260503202206 | 22 | 144 | 1.6 | 20.9 | 0.00 | 0.00 | 0.00 | 34 | 1010.3 |
| 20260503201217 | 22 | 71 | 4.8 | 19.3 | 0.00 | 0.00 | 0.00 | 34 | 1010.5 |
| 20260503194241 | 22 | 98 | 4.8 | 24.1 | 0.00 | 0.00 | 0.00 | 35 | 1010.8 |
| 20260503193211 | 22 | 205 | 4.8 | 12.9 | 0.00 | 0.00 | 0.00 | 32 | 1010.9 |
| 20260503185238 | 22 | 5 | 6.4 | 17.7 | 0.00 | 0.00 | 0.00 | 32 | 1011.3 |
| 20260503184243 | 22 | 6 | 4.8 | 19.3 | 0.00 | 0.00 | 0.00 | 32 | 1011.4 |
| 20260503183243 | 21 | 34 | 4.8 | 14.5 | 0.00 | 0.00 | 0.00 | 36 | 1011.5 |
| 20260503182229 | 21 | 46 | 6.4 | 19.3 | 0.00 | 0.00 | 0.00 | 34 | 1011.7 |
| 20260503181226 | 21 | 56 | 6.4 | 17.7 | 0.00 | 0.00 | 0.00 | 35 | 1011.8 |
| 20260503175218 | 21 | 28 | 4.8 | 22.5 | 0.00 | 0.00 | 0.00 | 34 | 1012.3 |
| 20260503173242 | 21 | 6 | 8.0 | 22.5 | 0.00 | 0.00 | 0.00 | 33 | 1012.5 |
| 20260503172222 | 21 | 6 | 4.8 | 17.7 | 0.00 | 0.00 | 0.00 | 37 | 1012.7 |
| 20260503171234 | 20 | 6 | 9.7 | 19.3 | 0.00 | 0.00 | 0.00 | 36 | 1012.8 |
| 20260503170237 | 20 | 6 | 4.8 | 17.7 | 0.00 | 0.00 | 0.00 | 36 | 1012.9 |